createdAt,value
2023-03-11T00:00:28.821Z,9.70
2023-03-11T00:02:58.336Z,9.70
2023-03-11T00:05:31.331Z,9.70
2023-03-11T00:07:59.461Z,9.60
2023-03-11T00:10:32.936Z,9.50
2023-03-11T00:13:01.428Z,9.50
2023-03-11T00:15:29.871Z,9.50
2023-03-11T00:17:58.040Z,9.40
2023-03-11T00:20:29.400Z,9.40
2023-03-11T00:22:57.985Z,9.30
2023-03-11T00:25:27.586Z,9.20
2023-03-11T00:27:55.030Z,9.20
2023-03-11T00:30:23.723Z,9.20
2023-03-11T00:32:53.398Z,9.20
2023-03-11T00:35:26.286Z,9.10
2023-03-11T00:37:59.683Z,9.10
2023-03-11T00:40:30.638Z,9.10
2023-03-11T00:42:58.418Z,9.00
2023-03-11T00:45:26.959Z,9.00
2023-03-11T00:47:55.161Z,9.00
2023-03-11T00:50:25.573Z,9.00
2023-03-11T00:52:53.549Z,9.00
2023-03-11T00:55:24.315Z,9.00
2023-03-11T00:57:56.533Z,8.90
2023-03-11T01:00:24.966Z,8.80
2023-03-11T01:02:53.350Z,8.80
2023-03-11T01:05:23.468Z,8.80
2023-03-11T01:07:50.944Z,8.80
2023-03-11T01:10:18.726Z,8.80
2023-03-11T01:12:46.019Z,8.70
2023-03-11T01:15:23.337Z,8.70
2023-03-11T01:17:50.879Z,8.70
2023-03-11T01:20:18.550Z,8.60
2023-03-11T01:22:46.175Z,8.60
2023-03-11T01:25:19.342Z,8.60
2023-03-11T01:27:47.513Z,8.50
2023-03-11T01:30:20.643Z,8.50
2023-03-11T01:32:48.457Z,8.50
2023-03-11T01:35:18.788Z,8.50
2023-03-11T01:37:46.749Z,8.40
2023-03-11T01:40:36.065Z,8.40
2023-03-11T01:43:05.129Z,8.30
2023-03-11T01:45:50.702Z,8.10
2023-03-11T01:48:17.988Z,8.10
2023-03-11T01:50:49.920Z,8.00
2023-03-11T01:53:18.778Z,7.90
2023-03-11T01:55:47.248Z,7.80
2023-03-11T01:58:23.326Z,7.80
2023-03-11T02:00:50.857Z,7.80
2023-03-11T02:03:34.560Z,7.80
2023-03-11T02:06:03.755Z,7.70
2023-03-11T02:08:34.459Z,7.60
2023-03-11T02:11:04.201Z,7.60
2023-03-11T02:13:35.535Z,7.50
2023-03-11T02:16:04.585Z,7.60
2023-03-11T02:18:32.570Z,7.50
2023-03-11T02:21:25.665Z,7.60
2023-03-11T02:24:15.932Z,7.60
2023-03-11T02:26:57.306Z,7.60
2023-03-11T02:29:27.074Z,7.60
2023-03-11T02:31:56.922Z,7.50
2023-03-11T02:34:27.264Z,7.50
2023-03-11T02:36:54.749Z,7.40
2023-03-11T02:39:40.066Z,7.40
2023-03-11T02:42:25.266Z,7.40
2023-03-11T02:45:14.229Z,7.30
2023-03-11T02:47:41.919Z,7.30
2023-03-11T02:50:14.134Z,7.20
2023-03-11T02:52:41.765Z,7.10
2023-03-11T02:55:12.143Z,7.10
2023-03-11T02:57:39.817Z,7.00
2023-03-11T03:00:11.446Z,6.90
2023-03-11T03:02:38.853Z,6.80
2023-03-11T03:05:06.691Z,6.70
2023-03-11T03:07:34.055Z,6.60
2023-03-11T03:10:01.313Z,6.50
2023-03-11T03:12:28.777Z,6.50
2023-03-11T03:14:56.109Z,6.40
2023-03-11T03:17:23.513Z,6.40
2023-03-11T03:19:50.909Z,6.30
2023-03-11T03:22:18.141Z,6.30
2023-03-11T03:24:45.430Z,6.30
2023-03-11T03:27:12.694Z,6.20
2023-03-11T03:29:39.908Z,6.20
2023-03-11T03:32:07.605Z,6.20
2023-03-11T03:34:35.361Z,6.10
2023-03-11T03:37:02.627Z,6.10
2023-03-11T03:39:30.776Z,6.00
2023-03-11T03:41:58.350Z,5.90
2023-03-11T03:44:25.753Z,5.80
2023-03-11T03:46:52.964Z,5.70
2023-03-11T03:49:20.233Z,5.60
2023-03-11T03:51:47.585Z,5.50
2023-03-11T03:54:15.881Z,5.30
2023-03-11T03:56:43.322Z,5.10
2023-03-11T03:59:10.622Z,4.90
2023-03-11T04:01:38.014Z,4.80
2023-03-11T04:04:05.494Z,4.70
2023-03-11T04:06:32.853Z,4.60
2023-03-11T04:09:00.406Z,4.60
2023-03-11T04:11:27.756Z,4.60
2023-03-11T04:13:56.086Z,4.60
2023-03-11T04:16:24.381Z,4.70
2023-03-11T04:18:51.774Z,4.70
2023-03-11T04:21:19.125Z,4.60
2023-03-11T04:23:46.496Z,4.60
2023-03-11T04:26:14.014Z,4.50
2023-03-11T04:28:41.551Z,4.50
2023-03-11T04:31:08.942Z,4.50
2023-03-11T04:33:36.310Z,4.40
2023-03-11T04:36:08.281Z,4.30
2023-03-11T04:38:36.079Z,4.20
2023-03-11T04:41:05.173Z,4.10
2023-03-11T04:43:33.729Z,4.00
2023-03-11T04:46:01.115Z,3.90
2023-03-11T04:48:28.651Z,3.70
2023-03-11T04:50:56.186Z,3.60
2023-03-11T04:53:24.219Z,3.40
2023-03-11T04:55:52.670Z,3.30
2023-03-11T04:58:20.920Z,3.30
2023-03-11T05:00:48.166Z,3.20
2023-03-11T05:03:15.810Z,3.10
2023-03-11T05:05:43.305Z,3.10
2023-03-11T05:08:10.641Z,3.10
2023-03-11T05:10:39.835Z,3.10
2023-03-11T05:13:07.151Z,3.20
2023-03-11T05:15:34.524Z,3.20
2023-03-11T05:18:01.807Z,3.20
2023-03-11T05:20:28.995Z,3.30
2023-03-11T05:22:56.493Z,3.30
2023-03-11T05:25:23.908Z,3.30
2023-03-11T05:27:51.183Z,3.30
2023-03-11T05:30:18.530Z,3.30
2023-03-11T05:32:46.219Z,3.30
2023-03-11T05:35:13.661Z,3.30
2023-03-11T05:37:41.224Z,3.30
2023-03-11T05:40:11.519Z,3.30
2023-03-11T05:42:41.548Z,3.30
2023-03-11T05:45:09.944Z,3.30
2023-03-11T05:47:37.317Z,3.30
2023-03-11T05:50:05.264Z,3.30
2023-03-11T05:52:34.270Z,3.30
2023-03-11T05:55:01.622Z,3.40
2023-03-11T05:57:29.081Z,3.40
2023-03-11T05:59:57.170Z,3.40
2023-03-11T06:02:24.715Z,3.40
2023-03-11T06:04:52.213Z,3.30
2023-03-11T06:07:19.579Z,3.20
2023-03-11T06:09:46.989Z,3.20
2023-03-11T06:12:14.368Z,3.20
2023-03-11T06:14:41.707Z,3.20
2023-03-11T06:17:09.362Z,3.10
2023-03-11T06:19:36.630Z,3.00
2023-03-11T06:22:03.864Z,3.00
2023-03-11T06:24:31.303Z,3.00
2023-03-11T06:26:58.688Z,2.90
2023-03-11T06:29:26.953Z,2.90
2023-03-11T06:31:54.295Z,2.90
2023-03-11T06:34:21.840Z,2.80
2023-03-11T06:36:49.105Z,2.80
2023-03-11T06:39:16.860Z,2.80
2023-03-11T06:41:44.232Z,2.80
2023-03-11T06:44:12.253Z,2.70
2023-03-11T06:46:39.894Z,2.70
2023-03-11T06:49:07.525Z,2.60
2023-03-11T06:51:35.222Z,2.50
2023-03-11T06:54:02.472Z,2.40
2023-03-11T06:56:29.848Z,2.40
2023-03-11T06:58:57.129Z,2.40
2023-03-11T07:01:26.332Z,2.30
2023-03-11T07:03:53.748Z,2.20
2023-03-11T07:06:23.817Z,2.20
2023-03-11T07:08:53.124Z,2.10
2023-03-11T07:11:25.726Z,2.10
2023-03-11T07:13:54.828Z,2.10
2023-03-11T07:16:27.847Z,2.10
2023-03-11T07:19:01.143Z,2.10
2023-03-11T07:21:30.294Z,2.10
2023-03-11T07:24:00.322Z,2.10
2023-03-11T07:26:29.420Z,2.00
2023-03-11T07:28:58.104Z,2.00
2023-03-11T07:31:28.382Z,2.00
2023-03-11T07:33:58.825Z,2.00
2023-03-11T07:36:27.165Z,2.00
2023-03-11T07:39:04.553Z,2.00
2023-03-11T07:41:36.118Z,2.00
2023-03-11T07:44:08.079Z,2.00
2023-03-11T07:46:36.709Z,2.00
2023-03-11T07:49:04.572Z,2.00
2023-03-11T07:51:34.883Z,1.90
2023-03-11T07:54:02.915Z,1.90
2023-03-11T07:56:34.245Z,1.90
2023-03-11T07:59:03.671Z,1.90
2023-03-11T08:01:36.815Z,1.80
2023-03-11T08:04:07.109Z,1.80
2023-03-11T08:06:37.928Z,1.80
2023-03-11T08:09:09.321Z,1.80
2023-03-11T08:11:37.656Z,1.80
2023-03-11T08:14:05.657Z,1.80
2023-03-11T08:16:33.403Z,1.80
2023-03-11T08:19:01.216Z,1.80
2023-03-11T08:21:32.465Z,1.80
2023-03-11T08:24:03.008Z,1.80
2023-03-11T08:26:32.317Z,1.80
2023-03-11T08:29:00.214Z,1.80
2023-03-11T08:31:30.824Z,1.80
2023-03-11T08:34:03.906Z,1.80
2023-03-11T08:36:32.205Z,1.80
2023-03-11T08:38:59.798Z,1.80
2023-03-11T08:41:28.010Z,1.80
2023-03-11T08:43:55.451Z,1.80
2023-03-11T08:46:33.434Z,1.80
2023-03-11T08:49:02.275Z,1.80
2023-03-11T08:51:34.120Z,1.80
2023-03-11T08:54:02.471Z,1.80
2023-03-11T08:56:31.020Z,1.80
2023-03-11T08:59:01.322Z,1.80
2023-03-11T09:01:30.155Z,1.80
2023-03-11T09:03:58.095Z,1.80
2023-03-11T09:06:25.882Z,1.80
2023-03-11T09:08:53.387Z,1.70
2023-03-11T09:11:22.808Z,1.70
2023-03-11T09:13:50.733Z,1.70
2023-03-11T09:16:24.219Z,1.60
2023-03-11T09:18:51.540Z,1.60
2023-03-11T09:21:19.091Z,1.60
2023-03-11T09:23:46.530Z,1.60
2023-03-11T09:26:14.513Z,1.60
2023-03-11T09:28:43.176Z,1.60
2023-03-11T09:31:10.567Z,1.60
2023-03-11T09:33:40.221Z,1.60
2023-03-11T09:36:08.991Z,1.70
2023-03-11T09:38:39.118Z,1.70
2023-03-11T09:41:18.731Z,1.70
2023-03-11T09:44:04.185Z,1.70
2023-03-11T09:46:45.163Z,1.70
2023-03-11T09:49:24.483Z,1.60
2023-03-11T09:52:04.940Z,1.60
2023-03-11T09:54:38.481Z,1.60
2023-03-11T09:57:10.032Z,1.60
2023-03-11T09:59:38.793Z,1.60
2023-03-11T10:02:06.855Z,1.60
2023-03-11T10:04:42.577Z,1.70
2023-03-11T10:07:24.240Z,1.70
2023-03-11T10:09:59.638Z,1.70
2023-03-11T10:12:54.132Z,1.70
2023-03-11T10:15:48.794Z,1.60
2023-03-11T10:18:43.367Z,1.60
2023-03-11T10:21:22.077Z,1.60
2023-03-11T10:24:14.789Z,1.70
2023-03-11T10:26:57.071Z,1.80
2023-03-11T10:29:45.768Z,1.90
2023-03-11T10:32:25.747Z,1.90
2023-03-11T10:35:04.656Z,2.00
2023-03-11T10:37:49.787Z,2.00
2023-03-11T10:40:30.617Z,1.90
2023-03-11T10:43:02.282Z,1.90
2023-03-11T10:45:36.924Z,1.90
2023-03-11T10:48:16.736Z,1.80
2023-03-11T10:51:12.663Z,1.90
2023-03-11T10:53:58.584Z,1.90
2023-03-11T10:56:35.457Z,1.70
2023-03-11T10:59:05.556Z,1.80
2023-03-11T11:01:33.295Z,1.90
2023-03-11T11:04:02.857Z,2.00
2023-03-11T11:06:33.021Z,2.00
2023-03-11T11:09:17.626Z,2.10
2023-03-11T11:12:06.303Z,2.10
2023-03-11T11:14:43.982Z,2.00
2023-03-11T11:17:37.518Z,2.10
2023-03-11T11:20:13.422Z,2.00
2023-03-11T11:22:52.723Z,2.10
2023-03-11T11:25:34.634Z,2.10
2023-03-11T11:28:17.015Z,2.20
2023-03-11T11:30:59.373Z,2.40
2023-03-11T11:33:39.600Z,2.40
2023-03-11T11:36:15.849Z,2.40
2023-03-11T11:38:43.524Z,2.40
2023-03-11T11:41:17.212Z,2.30
2023-03-11T11:44:06.661Z,2.10
2023-03-11T11:47:17.141Z,1.90
2023-03-11T11:49:57.428Z,1.60
2023-03-11T11:52:38.049Z,1.50
2023-03-11T11:55:20.623Z,1.50
2023-03-11T11:57:48.823Z,1.60
2023-03-11T12:00:28.662Z,1.60
2023-03-11T12:03:24.047Z,1.70
2023-03-11T12:06:07.543Z,1.80
2023-03-11T12:08:51.349Z,1.90
2023-03-11T12:11:47.562Z,2.10
2023-03-11T12:14:33.883Z,2.20
2023-03-11T12:17:04.266Z,2.20
2023-03-11T12:19:37.553Z,2.10
2023-03-11T12:22:35.916Z,2.10
2023-03-11T12:25:14.626Z,2.00
2023-03-11T12:28:23.334Z,2.00
2023-03-11T12:30:56.811Z,2.00
2023-03-11T12:33:24.202Z,2.10
2023-03-11T12:35:56.519Z,2.20
2023-03-11T12:38:35.721Z,2.30
2023-03-11T12:41:15.248Z,2.30
2023-03-11T12:43:43.262Z,2.30
2023-03-11T12:46:17.737Z,2.30
2023-03-11T12:49:09.658Z,2.20
2023-03-11T12:51:37.968Z,2.00
2023-03-11T12:54:31.082Z,2.00
2023-03-11T12:57:00.278Z,2.00
2023-03-11T12:59:48.873Z,2.00
2023-03-11T13:02:47.874Z,2.10
2023-03-11T13:05:30.692Z,2.30
2023-03-11T13:08:17.785Z,3.20
2023-03-11T13:10:47.399Z,3.60
2023-03-11T13:13:40.916Z,3.70
2023-03-11T13:16:29.333Z,3.60
2023-03-11T13:19:28.564Z,3.30
2023-03-11T13:22:00.557Z,3.20
2023-03-11T13:24:30.142Z,3.30
2023-03-11T13:27:03.372Z,3.20
2023-03-11T13:30:25.353Z,3.20
2023-03-11T13:33:14.634Z,3.10
2023-03-11T13:36:16.191Z,3.00
2023-03-11T13:39:02.732Z,2.90
2023-03-11T13:41:38.355Z,2.80
2023-03-11T13:44:20.482Z,2.60
2023-03-11T13:47:06.956Z,2.60
2023-03-11T13:49:52.768Z,2.60
2023-03-11T13:52:47.046Z,2.50
2023-03-11T13:55:25.877Z,2.50
2023-03-11T13:57:57.926Z,2.50
2023-03-11T14:00:30.919Z,2.30
2023-03-11T14:03:11.886Z,2.30
2023-03-11T14:05:45.820Z,2.30
2023-03-11T14:08:22.574Z,2.10
2023-03-11T14:10:58.620Z,2.10
2023-03-11T14:13:28.793Z,2.10
2023-03-11T14:16:06.263Z,2.30
2023-03-11T14:18:49.007Z,2.40
2023-03-11T14:21:19.858Z,2.50
2023-03-11T14:23:49.751Z,2.60
2023-03-11T14:26:24.307Z,2.50
2023-03-11T14:28:59.983Z,2.40
2023-03-11T14:31:47.072Z,2.30
2023-03-11T14:34:17.925Z,2.20
2023-03-11T14:36:51.158Z,2.10
2023-03-11T14:39:39.996Z,1.90
2023-03-11T14:42:26.931Z,1.90
2023-03-11T14:45:05.845Z,1.90
2023-03-11T14:47:52.644Z,1.90
2023-03-11T14:50:26.570Z,2.00
2023-03-11T14:52:53.957Z,2.00
2023-03-11T14:55:27.745Z,2.00
2023-03-11T14:58:15.777Z,2.10
2023-03-11T15:01:03.421Z,2.20
2023-03-11T15:03:33.913Z,2.30
2023-03-11T15:06:11.428Z,2.40
2023-03-11T15:08:46.805Z,2.40
2023-03-11T15:11:15.174Z,2.30
2023-03-11T15:13:47.577Z,2.20
2023-03-11T15:16:30.700Z,2.10
2023-03-11T15:19:02.717Z,1.90
2023-03-11T15:21:32.549Z,1.80
2023-03-11T15:24:06.884Z,1.60
2023-03-11T15:26:38.555Z,1.60
2023-03-11T15:29:17.136Z,1.60
2023-03-11T15:31:47.277Z,1.60
2023-03-11T15:34:17.373Z,1.60
2023-03-11T15:36:48.950Z,1.60
2023-03-11T15:39:28.380Z,1.60
2023-03-11T15:42:06.876Z,1.50
2023-03-11T15:45:01.708Z,1.50
2023-03-11T15:47:29.435Z,1.50
2023-03-11T15:49:57.022Z,1.50
2023-03-11T15:52:24.496Z,1.50
2023-03-11T15:54:55.718Z,1.50
2023-03-11T15:57:27.320Z,1.50
2023-03-11T15:59:57.927Z,1.40
2023-03-11T16:02:27.646Z,1.40
2023-03-11T16:04:56.698Z,1.30
2023-03-11T16:07:38.708Z,1.30
2023-03-11T16:10:08.440Z,1.20
2023-03-11T16:12:36.013Z,1.30
2023-03-11T16:15:04.447Z,1.30
2023-03-11T16:17:46.856Z,1.30
2023-03-11T16:20:17.622Z,1.20
2023-03-11T16:22:45.380Z,1.30
2023-03-11T16:25:23.580Z,1.30
2023-03-11T16:27:53.403Z,1.30
2023-03-11T16:30:21.678Z,1.30
2023-03-11T16:32:49.067Z,1.30
2023-03-11T16:35:17.291Z,1.20
2023-03-11T16:37:45.448Z,1.30
2023-03-11T16:40:16.832Z,1.20
2023-03-11T16:42:44.384Z,1.30
2023-03-11T16:45:14.080Z,1.20
2023-03-11T16:47:43.200Z,1.20
2023-03-11T16:50:11.359Z,1.20
2023-03-11T16:52:39.356Z,1.30
2023-03-11T16:55:07.762Z,1.20
2023-03-11T16:57:40.095Z,1.30
2023-03-11T17:00:10.350Z,1.30
2023-03-11T17:02:38.516Z,1.30
2023-03-11T17:05:06.862Z,1.30
2023-03-11T17:07:34.472Z,1.30
2023-03-11T17:10:02.975Z,1.30
2023-03-11T17:12:30.739Z,1.30
2023-03-11T17:14:58.402Z,1.30
2023-03-11T17:17:25.861Z,1.30
2023-03-11T17:19:53.216Z,1.30
2023-03-11T17:22:20.676Z,1.30
2023-03-11T17:24:47.930Z,1.30
2023-03-11T17:27:15.635Z,1.20
2023-03-11T17:29:42.963Z,1.30
2023-03-11T17:32:16.899Z,1.30
2023-03-11T17:34:44.830Z,1.20
2023-03-11T17:37:12.378Z,1.30
2023-03-11T17:39:39.822Z,1.30
2023-03-11T17:42:07.197Z,1.30
2023-03-11T17:44:50.247Z,1.20
2023-03-11T17:47:20.441Z,1.30
2023-03-11T17:49:49.187Z,1.30
2023-03-11T17:52:16.576Z,1.30
2023-03-11T17:54:44.400Z,1.30
2023-03-11T17:57:12.329Z,1.30
2023-03-11T17:59:39.732Z,1.40
2023-03-11T18:02:08.707Z,1.40
2023-03-11T18:04:36.032Z,1.30
2023-03-11T18:07:04.055Z,1.30
2023-03-11T18:09:31.368Z,1.30
2023-03-11T18:11:58.675Z,1.30
2023-03-11T18:14:26.299Z,1.30
2023-03-11T18:16:53.684Z,1.40
2023-03-11T18:19:21.205Z,1.40
2023-03-11T18:21:48.541Z,1.40
2023-03-11T18:24:15.785Z,1.40
2023-03-11T18:26:43.273Z,1.30
2023-03-11T18:29:10.607Z,1.30
2023-03-11T18:31:40.362Z,1.30
2023-03-11T18:34:13.708Z,1.30
2023-03-11T18:36:42.211Z,1.20
2023-03-11T18:39:14.312Z,1.20
2023-03-11T18:41:43.054Z,1.20
2023-03-11T18:44:11.372Z,1.20
2023-03-11T18:46:38.867Z,1.10
2023-03-11T18:49:06.278Z,1.10
2023-03-11T18:51:33.712Z,1.20
2023-03-11T18:54:01.712Z,1.20
2023-03-11T18:56:31.391Z,1.20
2023-03-11T18:58:59.994Z,1.20
2023-03-11T19:01:28.018Z,1.20
2023-03-11T19:03:58.009Z,1.20
2023-03-11T19:06:27.475Z,1.20
2023-03-11T19:08:55.997Z,1.10
2023-03-11T19:11:24.843Z,1.10
2023-03-11T19:13:56.858Z,1.10
2023-03-11T19:16:26.358Z,1.10
2023-03-11T19:18:55.462Z,1.10
2023-03-11T19:21:23.690Z,1.10
2023-03-11T19:23:53.100Z,1.10
2023-03-11T19:26:23.888Z,1.10
2023-03-11T19:28:55.837Z,1.10
2023-03-11T19:31:23.277Z,1.10
2023-03-11T19:33:51.564Z,1.10
2023-03-11T19:36:19.015Z,1.10
2023-03-11T19:38:47.671Z,1.10
2023-03-11T19:41:20.921Z,1.10
2023-03-11T19:43:48.565Z,1.10
2023-03-11T19:46:20.958Z,1.10
2023-03-11T19:48:48.419Z,1.00
2023-03-11T19:51:18.220Z,1.00
2023-03-11T19:53:46.723Z,0.90
2023-03-11T19:56:14.374Z,0.90
2023-03-11T19:58:43.976Z,0.80
2023-03-11T20:01:19.134Z,0.80
2023-03-11T20:03:47.074Z,0.80
2023-03-11T20:06:17.117Z,0.70
2023-03-11T20:08:45.492Z,0.70
2023-03-11T20:11:13.351Z,0.70
2023-03-11T20:13:43.349Z,0.60
2023-03-11T20:16:14.352Z,0.60
2023-03-11T20:18:43.325Z,0.60
2023-03-11T20:21:13.118Z,0.60
2023-03-11T20:23:41.709Z,0.50
2023-03-11T20:26:17.324Z,0.50
2023-03-11T20:28:44.879Z,0.50
2023-03-11T20:31:21.566Z,0.50
2023-03-11T20:33:50.710Z,0.50
2023-03-11T20:36:24.845Z,0.40
2023-03-11T20:38:54.335Z,0.40
2023-03-11T20:41:23.547Z,0.30
2023-03-11T20:43:57.930Z,0.30
2023-03-11T20:46:25.801Z,0.30
2023-03-11T20:48:53.660Z,0.30
2023-03-11T20:51:21.707Z,0.30
2023-03-11T20:53:50.644Z,0.30
2023-03-11T20:56:21.890Z,0.30
2023-03-11T20:58:51.578Z,0.30
2023-03-11T21:01:24.652Z,0.30
2023-03-11T21:03:57.554Z,0.20
2023-03-11T21:06:28.696Z,0.20
2023-03-11T21:08:58.142Z,0.10
2023-03-11T21:11:26.213Z,0.10
2023-03-11T21:13:55.104Z,0.10
2023-03-11T21:16:23.253Z,0.10
2023-03-11T21:18:50.764Z,0.00
2023-03-11T21:21:19.032Z,0.00
2023-03-11T21:23:47.602Z,0.00
2023-03-11T21:26:16.340Z,0.00
2023-03-11T21:28:47.161Z,0.00
2023-03-11T21:31:20.630Z,0.10
2023-03-11T21:33:48.710Z,0.10
2023-03-11T21:36:17.336Z,0.00
2023-03-11T21:38:46.422Z,-0.10
2023-03-11T21:41:24.270Z,-0.10
2023-03-11T21:43:53.253Z,-0.10
2023-03-11T21:46:32.338Z,-0.10
2023-03-11T21:49:01.463Z,-0.10
2023-03-11T21:51:29.443Z,-0.10
2023-03-11T21:53:57.084Z,-0.20
2023-03-11T21:56:25.180Z,-0.20
2023-03-11T21:58:54.193Z,-0.20
2023-03-11T22:01:21.613Z,-0.20
2023-03-11T22:03:49.114Z,-0.20
2023-03-11T22:06:16.748Z,-0.30
2023-03-11T22:08:44.268Z,-0.30
2023-03-11T22:11:17.977Z,-0.30
2023-03-11T22:13:51.390Z,-0.30
2023-03-11T22:16:24.547Z,-0.40
2023-03-11T22:18:52.489Z,-0.30
2023-03-11T22:21:21.039Z,-0.40
2023-03-11T22:23:48.745Z,-0.50
2023-03-11T22:26:16.782Z,-0.50
2023-03-11T22:28:44.169Z,-0.50
2023-03-11T22:31:14.235Z,-0.50
2023-03-11T22:33:41.574Z,-0.40
2023-03-11T22:36:09.824Z,-0.50
2023-03-11T22:38:39.402Z,-0.50
2023-03-11T22:41:09.095Z,-0.50
2023-03-11T22:43:37.048Z,-0.50
2023-03-11T22:46:06.197Z,-0.40
2023-03-11T22:48:34.217Z,-0.50
2023-03-11T22:51:02.383Z,-0.60
2023-03-11T22:53:29.908Z,-0.50
2023-03-11T22:55:57.761Z,-0.50
2023-03-11T22:58:25.263Z,-0.60
2023-03-11T23:00:52.586Z,-0.70
2023-03-11T23:03:19.892Z,-0.60
2023-03-11T23:05:47.334Z,-0.60
2023-03-11T23:08:17.020Z,-0.60
2023-03-11T23:10:49.745Z,-0.70
2023-03-11T23:13:17.369Z,-0.70
2023-03-11T23:15:46.399Z,-0.70
2023-03-11T23:18:14.847Z,-0.70
2023-03-11T23:20:43.651Z,-0.70
2023-03-11T23:23:12.751Z,-0.70
2023-03-11T23:25:41.994Z,-0.70
2023-03-11T23:28:09.656Z,-0.80
2023-03-11T23:30:37.817Z,-0.80
2023-03-11T23:33:05.233Z,-0.80
2023-03-11T23:35:33.602Z,-0.80
2023-03-11T23:38:01.482Z,-0.80
2023-03-11T23:40:28.770Z,-0.70
2023-03-11T23:42:56.249Z,-0.60
2023-03-11T23:45:23.998Z,-0.70
2023-03-11T23:47:51.300Z,-0.80
2023-03-11T23:50:19.236Z,-0.80
2023-03-11T23:52:46.560Z,-0.90
2023-03-11T23:55:14.186Z,-1.00
2023-03-11T23:57:41.571Z,-1.00
